Anmoore, West Virginia
Current Conditions -  °F | °C
As of 10:53 PM on Thursday 27 Nov 2014 (Local Time) from KCKB Reporting Station
Light Snow Light Snow  
Wind Chill: 22°   Ceiling: 1300
Heat Index: 29°   Visibility: 4mi
Dew Point: 26°   Wind: 7mph
Humidity: 89%   Direction: 250°WSW
Pressure: 30.25"   Gusts: NA
Location:  39.26°N, 80.29°W
Report Text: KCKB 280353Z AUTO 25006KT 4SM -SN BR OVC013 M02/M03 A3025 RMK AO2 SLP251 P0000 T10171033 TSNO
Loading
Personal Weather Stations






























Interactive Weather Map New forecast layout! Learn more

10-Day Weather Forecast

Advertisements
Track Severe Weather on mobile